Time;durP1;ratioP1;P1;durP2;ratioP2;P2;SDS_P1;SDS_P2;PMS_P1;PMS_P2;Temp;Humidity;BMP_temperature;BMP_pressure;BME280_temperature;BME280_humidity;BME280_pressure;Samples;Min_cycle;Max_cycle;Signal;HPM_P1;HPM_P2
2023/03/11 00:02:13;;;;;;;14.63;9.57;;;;;;;-141.97;81.29;47751.66;4992908;28;20624;-86
2023/03/11 00:04:39;;;;;;;13.80;9.27;;;;;;;-141.97;82.10;47647.84;4993297;28;20210;-86
2023/03/11 00:07:06;;;;;;;15.40;9.67;;;;;;;-141.97;82.38;47718.97;4992680;28;20222;-86
2023/03/11 00:09:31;;;;;;;17.67;10.17;;;;;;;-141.97;82.67;47672.84;4991769;28;20207;-87
2023/03/11 00:11:56;;;;;;;16.47;9.50;;;;;;;-141.97;82.24;47736.28;4993997;28;20701;-86
2023/03/11 00:14:22;;;;;;;15.43;9.23;;;;;;;-141.97;82.40;47665.16;4993213;28;20696;-86
2023/03/11 00:16:47;;;;;;;16.50;9.93;;;;;;;-141.97;82.16;47546.00;4993364;28;20167;-86
2023/03/11 00:19:13;;;;;;;12.97;8.37;;;;;;;-141.97;81.39;47740.13;4993921;28;20162;-86
2023/03/11 00:21:38;;;;;;;16.33;8.33;;;;;;;-141.97;80.52;47524.84;4992634;28;20199;-87
2023/03/11 00:24:04;;;;;;;16.87;9.20;;;;;;;-141.97;79.90;47776.63;5000774;28;20171;-87
2023/03/11 00:26:29;;;;;;;17.53;10.23;;;;;;;-141.97;79.98;47553.69;5014173;28;20170;-86
2023/03/11 00:28:55;;;;;;;14.70;9.93;;;;;;;-141.97;79.76;47676.69;5014711;28;20246;-87
2023/03/11 00:31:21;;;;;;;14.37;10.00;;;;;;;-141.97;79.79;47672.84;5006272;28;20223;-86
2023/03/11 00:33:47;;;;;;;16.00;9.37;;;;;;;-141.97;79.98;47722.81;4992622;28;20164;-86
2023/03/11 00:36:27;;;;;;;17.50;9.80;;;;;;;-141.97;80.22;47782.41;4992570;28;20623;-86
2023/03/11 00:38:53;;;;;;;15.30;8.83;;;;;;;-141.97;80.14;47638.25;4992308;28;20513;-86
2023/03/11 00:41:18;;;;;;;18.50;8.60;;;;;;;-141.97;80.11;47603.66;4991255;28;20183;-86
2023/03/11 00:43:44;;;;;;;14.17;8.83;;;;;;;-141.97;79.90;47713.22;4992477;28;20160;-86
2023/03/11 00:46:09;;;;;;;14.03;8.70;;;;;;;-141.97;80.42;47765.09;4992043;28;20175;-86
2023/03/11 00:48:35;;;;;;;15.13;9.03;;;;;;;-141.97;80.04;47642.09;4991590;28;20257;-87
2023/03/11 00:51:00;;;;;;;15.40;9.30;;;;;;;-141.97;79.98;47603.66;5010707;28;20256;-87
2023/03/11 00:53:26;;;;;;;14.97;9.03;;;;;;;-141.97;79.65;47792.03;5010808;28;20230;-86
2023/03/11 00:55:51;;;;;;;13.97;9.10;;;;;;;-141.97;79.32;47522.91;5011217;28;20170;-86
2023/03/11 00:58:16;;;;;;;23.13;13.33;;;;;;;-141.97;80.07;47713.22;5011965;28;20163;-85
2023/03/11 01:00:42;;;;;;;16.20;10.73;;;;;;;-141.97;81.03;47795.88;5012576;28;20155;-87
2023/03/11 01:03:07;;;;;;;17.70;10.80;;;;;;;-141.97;81.45;47595.97;5011410;28;20163;-87
2023/03/11 01:05:33;;;;;;;17.67;10.47;;;;;;;-141.97;81.86;47542.16;5012469;28;20151;-87
2023/03/11 01:08:00;;;;;;;16.37;9.77;;;;;;;-141.97;81.80;47619.03;5011894;28;20528;-86
2023/03/11 01:10:25;;;;;;;16.27;9.70;;;;;;;-141.97;82.18;47669.00;5015571;28;20183;-86
2023/03/11 01:12:51;;;;;;;15.60;9.83;;;;;;;-141.97;81.81;47536.38;5022594;28;20177;-86
2023/03/11 01:15:26;;;;;;;17.53;9.60;;;;;;;-141.97;81.68;47718.97;5014204;28;20163;-86
2023/03/11 01:17:52;;;;;;;20.33;10.40;;;;;;;-141.97;82.47;47553.69;5015186;28;20559;-86
2023/03/11 01:20:17;;;;;;;20.80;10.27;;;;;;;-141.97;82.14;47738.19;5015148;28;20159;-86
2023/03/11 01:22:43;;;;;;;17.27;10.13;;;;;;;-141.97;82.47;47649.78;5015300;28;20511;-87
2023/03/11 01:25:12;;;;;;;16.83;10.23;;;;;;;-141.97;82.89;47663.22;5016096;28;20159;-86
2023/03/11 01:27:37;;;;;;;18.10;9.60;;;;;;;-141.97;83.65;47743.97;5015861;28;20588;-86
2023/03/11 01:30:03;;;;;;;18.03;9.73;;;;;;;-141.97;85.03;47707.44;5015917;28;20261;-86
2023/03/11 01:32:29;;;;;;;17.37;10.50;;;;;;;-141.97;84.57;47684.38;5015261;28;20158;-85
2023/03/11 01:34:55;;;;;;;16.20;9.97;;;;;;;-141.97;84.34;47784.34;5014045;28;20162;-85
2023/03/11 01:37:20;;;;;;;16.17;9.90;;;;;;;-141.97;84.78;47734.34;5015929;28;20317;-85
2023/03/11 01:39:46;;;;;;;17.80;9.57;;;;;;;-141.97;84.84;47784.34;5014360;28;20233;-85
2023/03/11 01:42:12;;;;;;;16.20;10.30;;;;;;;-141.97;84.97;47807.41;5015069;28;20185;-85
2023/03/11 01:44:37;;;;;;;17.60;11.13;;;;;;;-141.97;84.86;47790.09;5013423;28;20174;-87
2023/03/11 01:47:02;;;;;;;17.17;10.90;;;;;;;-141.97;84.92;47703.59;5015244;28;20631;-87
2023/03/11 01:49:28;;;;;;;19.50;10.47;;;;;;;-141.97;84.91;47711.28;5014684;28;20221;-86
2023/03/11 01:51:59;;;;;;;19.57;10.27;;;;;;;-141.97;85.16;47569.06;5014969;28;20163;-87
2023/03/11 01:54:32;;;;;;;15.93;10.30;;;;;;;-141.97;85.00;47534.44;5014925;28;20213;-86
2023/03/11 01:57:00;;;;;;;20.03;10.67;;;;;;;-141.97;85.16;47780.47;5014781;28;20553;-85
2023/03/11 01:59:32;;;;;;;21.00;11.20;;;;;;;-141.97;84.78;47522.91;5029527;28;20492;-86
2023/03/11 02:02:17;;;;;;;17.67;10.47;;;;;;;-141.97;84.82;47784.34;5013532;28;20170;-85
2023/03/11 02:04:43;;;;;;;20.53;10.90;;;;;;;-141.97;84.64;47682.47;5014368;28;20169;-85
2023/03/11 02:07:10;;;;;;;16.80;10.40;;;;;;;-141.97;84.34;47793.94;5014304;28;20162;-85
2023/03/11 02:09:35;;;;;;;17.47;10.30;;;;;;;-141.97;84.16;47672.84;5014532;28;20187;-85
2023/03/11 02:12:03;;;;;;;16.73;10.13;;;;;;;-141.97;84.25;47703.59;5015198;28;20540;-86
2023/03/11 02:14:30;;;;;;;18.07;10.20;;;;;;;-141.97;84.87;47703.59;5014478;28;20171;-86
2023/03/11 02:16:57;;;;;;;36.13;18.53;;;;;;;-141.97;85.43;47580.59;5013629;28;20162;-86
2023/03/11 02:19:58;;;;;;;28.73;15.17;;;;;;;-141.97;86.20;47695.91;5013902;28;20179;-85
2023/03/11 02:22:23;;;;;;;22.07;11.47;;;;;;;-141.97;87.74;47570.97;5013644;28;20697;-85
2023/03/11 02:24:54;;;;;;;15.17;7.63;;;;;;;-141.97;90.87;47703.59;5014170;28;20163;-86
2023/03/11 02:27:21;;;;;;;16.67;9.00;;;;;;;-141.97;94.39;47586.34;5012246;28;20281;-86
2023/03/11 02:29:50;;;;;;;18.50;10.50;;;;;;;-141.97;95.06;47682.47;5013419;28;20214;-86
2023/03/11 02:32:17;;;;;;;15.87;9.17;;;;;;;-141.97;95.08;47688.22;5013716;28;20213;-86
2023/03/11 02:34:43;;;;;;;17.00;9.77;;;;;;;-141.97;94.89;47499.84;5013347;28;20663;-86
2023/03/11 02:37:13;;;;;;;17.37;9.77;;;;;;;-141.97;94.32;47797.78;5013385;28;20588;-86
2023/03/11 02:39:41;;;;;;;18.93;10.43;;;;;;;-141.97;94.36;47507.53;5013243;28;20233;-86
2023/03/11 02:42:16;;;;;;;16.50;9.20;;;;;;;-141.97;93.87;47718.97;5014133;28;20185;-85
2023/03/11 02:44:45;;;;;;;17.30;10.87;;;;;;;-141.97;94.14;47580.59;5012858;28;20557;-85
2023/03/11 02:47:10;;;;;;;19.53;11.20;;;;;;;-141.97;93.53;47717.06;5013651;28;20158;-86
2023/03/11 02:49:36;;;;;;;19.77;10.93;;;;;;;-141.97;93.11;47705.53;5012272;28;20309;-85
2023/03/11 02:52:02;;;;;;;16.63;10.10;;;;;;;-141.97;92.72;47720.91;5013311;28;20182;-86
2023/03/11 02:54:28;;;;;;;18.67;10.07;;;;;;;-141.97;92.42;47742.03;5013638;28;20158;-85
2023/03/11 02:56:53;;;;;;;21.57;11.40;;;;;;;-141.97;91.99;47722.81;5013211;28;20159;-86
2023/03/11 02:59:18;;;;;;;19.80;10.87;;;;;;;-141.97;91.38;47718.97;5014354;28;20515;-86
2023/03/11 03:01:44;;;;;;;16.87;10.47;;;;;;;-141.97;90.88;47619.03;5014090;28;20242;-86
2023/03/11 03:04:09;;;;;;;21.60;11.90;;;;;;;-141.97;90.62;47799.72;5012249;28;20249;-86
2023/03/11 03:06:35;;;;;;;21.20;11.63;;;;;;;-141.97;89.44;47699.75;5013520;28;20599;-85
2023/03/11 03:09:00;;;;;;;19.07;12.00;;;;;;;-141.97;88.60;47642.09;5012579;28;20261;-86
2023/03/11 03:11:25;;;;;;;23.53;12.63;;;;;;;-141.97;88.20;47736.28;5012561;28;20171;-86
2023/03/11 03:13:51;;;;;;;18.53;10.93;;;;;;;-141.97;88.58;47697.84;5012823;28;20159;-86
2023/03/11 03:16:16;;;;;;;16.93;10.43;;;;;;;-141.97;89.38;47749.72;5012642;28;20610;-86
2023/03/11 03:18:42;;;;;;;17.63;11.03;;;;;;;-141.97;89.67;47732.44;5012026;28;20174;-86
2023/03/11 03:21:08;;;;;;;15.93;10.63;;;;;;;-141.97;89.96;47638.25;5012099;28;20241;-85
2023/03/11 03:23:36;;;;;;;16.70;10.13;;;;;;;-141.97;89.29;47555.59;5010725;28;20605;-85
2023/03/11 03:26:02;;;;;;;20.87;13.07;;;;;;;-141.97;89.21;47713.22;5012388;28;20213;-85
2023/03/11 03:28:27;;;;;;;17.40;11.17;;;;;;;-141.97;89.77;47655.53;5012285;28;20163;-86
2023/03/11 03:30:53;;;;;;;117.10;73.23;;;;;;;-141.97;89.89;47676.69;5011866;28;20197;-86
2023/03/11 03:33:18;;;;;;;63.03;38.80;;;;;;;-141.97;89.70;47742.03;5011346;28;20171;-86
2023/03/11 03:35:45;;;;;;;85.03;48.00;;;;;;;-141.97;89.21;47701.69;5012511;28;20167;-85
2023/03/11 03:38:10;;;;;;;157.30;85.67;;;;;;;-141.97;88.45;47697.84;5011282;28;20170;-86
2023/03/11 03:40:36;;;;;;;156.47;91.17;;;;;;;-141.97;88.38;47788.19;5012664;28;20221;-87
2023/03/11 03:43:02;;;;;;;110.03;60.80;;;;;;;-141.97;87.79;47676.69;5003548;28;20183;-86
2023/03/11 03:45:27;;;;;;;32.23;18.60;;;;;;;-141.97;87.32;47695.91;4993362;28;20174;-87
2023/03/11 03:47:53;;;;;;;19.97;11.13;;;;;;;-141.97;86.84;47630.56;4992953;28;20198;-87
2023/03/11 03:50:18;;;;;;;15.10;10.13;;;;;;;-141.97;86.64;47707.44;4992930;28;20211;-87
2023/03/11 03:52:44;;;;;;;15.53;9.53;;;;;;;-141.97;86.66;47757.41;4993015;28;20249;-88
2023/03/11 03:55:09;;;;;;;16.43;8.70;;;;;;;-141.97;86.75;47688.22;4991668;28;20233;-87
2023/03/11 03:57:34;;;;;;;16.83;9.10;;;;;;;-141.97;86.23;47667.06;4992953;28;20164;-87
2023/03/11 04:00:00;;;;;;;17.57;10.63;;;;;;;-141.97;86.68;47603.66;4992920;28;20174;-87
2023/03/11 04:02:25;;;;;;;17.93;10.80;;;;;;;-141.97;87.08;47761.25;4992378;28;20164;-87
2023/03/11 04:04:51;;;;;;;20.33;11.77;;;;;;;-141.97;88.77;47592.13;4992762;28;20172;-87
2023/03/11 04:07:17;;;;;;;20.20;11.60;;;;;;;-141.97;88.96;47569.06;4992392;28;20249;-87
2023/03/11 04:09:43;;;;;;;17.97;10.20;;;;;;;-141.97;89.43;47574.81;4991865;28;20227;-86
2023/03/11 04:12:16;;;;;;;17.20;9.23;;;;;;;-141.97;89.18;47788.19;4993259;28;20156;-86
2023/03/11 04:14:42;;;;;;;14.53;9.27;;;;;;;-141.97;89.44;47659.38;4996089;28;20167;-85
2023/03/11 04:17:09;;;;;;;14.37;9.40;;;;;;;-141.97;89.19;47594.03;5000253;28;20179;-86
2023/03/11 04:19:35;;;;;;;15.00;8.90;;;;;;;-141.97;88.86;47684.38;4993718;28;20310;-86
2023/03/11 04:22:00;;;;;;;17.40;10.27;;;;;;;-141.97;89.09;47707.44;4993054;28;20282;-85
2023/03/11 04:24:26;;;;;;;17.90;9.97;;;;;;;-141.97;89.26;47734.34;4992820;28;20325;-86
2023/03/11 04:26:51;;;;;;;14.57;9.03;;;;;;;-141.97;88.71;47649.78;4993262;28;20160;-85
2023/03/11 04:29:16;;;;;;;15.63;9.70;;;;;;;-141.97;88.57;47592.13;4992797;28;20235;-86
2023/03/11 04:31:42;;;;;;;15.00;9.40;;;;;;;-141.97;89.58;47592.13;4992939;28;20167;-86
2023/03/11 04:34:07;;;;;;;19.87;11.73;;;;;;;-141.97;89.96;47595.97;4992883;28;20168;-87
2023/03/11 04:36:33;;;;;;;16.20;9.73;;;;;;;-141.97;89.09;47680.53;4992758;28;20262;-86
2023/03/11 04:39:02;;;;;;;17.37;9.60;;;;;;;-141.97;89.17;47651.69;4994258;28;20561;-85
2023/03/11 04:41:27;;;;;;;17.13;9.30;;;;;;;-141.97;90.25;47730.50;4991172;28;20273;-87
2023/03/11 04:43:52;;;;;;;16.60;9.90;;;;;;;-141.97;89.61;47772.78;4991920;28;20258;-87
2023/03/11 04:46:18;;;;;;;17.93;9.43;;;;;;;-141.97;89.08;47757.41;4995879;28;20172;-85
2023/03/11 04:48:43;;;;;;;16.50;9.50;;;;;;;-141.97;88.66;47647.84;4995709;28;20156;-87
2023/03/11 04:51:09;;;;;;;13.57;8.97;;;;;;;-141.97;89.07;47772.78;4994708;28;20265;-87
2023/03/11 04:53:34;;;;;;;16.10;9.53;;;;;;;-141.97;89.06;47711.28;4996077;28;20635;-87
2023/03/11 04:56:00;;;;;;;21.93;11.30;;;;;;;-141.97;88.45;47692.06;4995789;28;20670;-88
2023/03/11 04:58:25;;;;;;;17.80;10.10;;;;;;;-141.97;88.54;47509.47;4993791;28;20278;-85
2023/03/11 05:00:51;;;;;;;14.33;8.57;;;;;;;-141.97;87.93;47692.06;4995633;28;20238;-86
2023/03/11 05:03:17;;;;;;;14.03;8.47;;;;;;;-141.97;87.30;47599.81;5005319;28;20174;-87
2023/03/11 05:05:43;;;;;;;14.50;8.67;;;;;;;-141.97;87.30;47615.19;5014916;28;20163;-87
2023/03/11 05:08:08;;;;;;;14.27;8.37;;;;;;;-141.97;86.66;47824.69;5014944;28;20241;-87
2023/03/11 05:10:35;;;;;;;14.87;8.77;;;;;;;-141.97;87.01;47678.63;5014950;28;20198;-87
2023/03/11 05:13:01;;;;;;;13.90;8.33;;;;;;;-141.97;87.15;47711.28;5013755;28;20170;-86
2023/03/11 05:15:27;;;;;;;13.27;7.67;;;;;;;-141.97;86.96;47793.94;5015077;28;20613;-86
2023/03/11 05:17:53;;;;;;;13.17;8.97;;;;;;;-141.97;86.12;47736.28;5014711;28;20181;-86
2023/03/11 05:20:18;;;;;;;20.50;12.23;;;;;;;-141.97;85.89;47734.34;5014234;28;20667;-86
2023/03/11 05:22:44;;;;;;;18.80;11.47;;;;;;;-141.97;85.98;47747.81;5013936;28;20175;-86
2023/03/11 05:25:09;;;;;;;15.20;10.33;;;;;;;-141.97;84.83;47522.91;5014878;28;20162;-86
2023/03/11 05:27:35;;;;;;;18.07;12.13;;;;;;;-141.97;84.16;47619.03;5015072;28;20645;-87
2023/03/11 05:30:00;;;;;;;16.67;11.67;;;;;;;-141.97;84.56;47695.91;5014506;28;20234;-87
2023/03/11 05:32:25;;;;;;;15.23;10.23;;;;;;;-141.97;84.49;47553.69;5008744;28;20187;-86
2023/03/11 05:34:51;;;;;;;15.57;9.23;;;;;;;-141.97;84.89;47713.22;4986613;28;20225;-86
2023/03/11 05:37:17;;;;;;;18.00;10.77;;;;;;;-141.97;84.87;47699.75;4989840;28;20270;-86
2023/03/11 05:39:42;;;;;;;14.97;10.27;;;;;;;-141.97;84.97;47638.25;4976184;28;20191;-88
2023/03/11 05:42:08;;;;;;;17.47;10.37;;;;;;;-141.97;84.59;47786.25;4977716;28;20168;-89
2023/03/11 05:44:34;;;;;;;16.50;10.87;;;;;;;-141.97;84.21;47788.19;4991820;28;20238;-87
2023/03/11 05:47:02;;;;;;;16.70;11.47;;;;;;;-141.97;83.31;47830.47;4996106;28;20183;-89
2023/03/11 05:49:28;;;;;;;36.03;19.30;;;;;;;-141.97;82.68;47597.88;4994437;28;20610;-88
2023/03/11 05:51:56;;;;;;;27.73;18.10;;;;;;;-141.97;81.80;47822.78;4997462;28;20178;-88
2023/03/11 05:54:21;;;;;;;41.60;25.20;;;;;;;-141.97;81.19;47622.88;4996616;28;20190;-88
2023/03/11 05:56:47;;;;;;;85.43;41.63;;;;;;;-141.97;80.73;47690.16;4994917;28;20628;-88
2023/03/11 05:59:14;;;;;;;126.27;59.53;;;;;;;-141.97;80.30;47594.03;4996463;28;20554;-87
2023/03/11 06:01:40;;;;;;;81.40;39.40;;;;;;;-141.97;79.43;47703.59;5000949;28;20185;-87
2023/03/11 06:04:06;;;;;;;34.83;21.90;;;;;;;-141.97;78.70;47715.13;5002621;28;20175;-88
2023/03/11 06:06:32;;;;;;;42.63;22.77;;;;;;;-141.97;78.51;47665.16;5006497;28;20310;-88
2023/03/11 06:08:57;;;;;;;87.57;43.83;;;;;;;-141.97;77.87;47768.94;5008070;28;20324;-87
2023/03/11 06:11:24;;;;;;;33.87;20.33;;;;;;;-141.97;77.68;47611.34;4997634;28;20221;-88
2023/03/11 06:13:57;;;;;;;35.67;20.57;;;;;;;-141.97;76.93;47745.88;4996427;28;20179;-87
2023/03/11 06:16:23;;;;;;;115.37;50.87;;;;;;;-141.97;76.16;47743.97;4993818;28;20176;-89
2023/03/11 06:18:52;;;;;;;76.70;36.30;;;;;;;-141.97;76.28;47582.50;4994677;28;20195;-88
2023/03/11 06:21:20;;;;;;;69.83;36.37;;;;;;;-141.97;75.79;47619.03;4993467;28;20168;-90
2023/03/11 06:23:46;;;;;;;46.17;23.60;;;;;;;-141.97;74.89;47655.53;4993735;28;20180;-89
2023/03/11 06:26:17;;;;;;;19.47;10.90;;;;;;;-141.97;75.35;47694.00;4991587;28;20872;-89
2023/03/11 06:28:44;;;;;;;30.47;18.27;;;;;;;-141.97;75.86;47469.09;4993092;28;20362;-89
2023/03/11 06:31:29;;;;;;;23.90;15.17;;;;;;;-141.97;75.07;47688.22;4994634;28;20706;-88
2023/03/11 06:33:55;;;;;;;14.83;11.20;;;;;;;-141.97;75.85;47499.84;4998105;28;20274;-89
2023/03/11 06:36:21;;;;;;;18.10;10.90;;;;;;;-141.97;77.54;47757.41;4992954;28;20186;-88
2023/03/11 06:38:55;;;;;;;19.50;13.43;;;;;;;-141.97;76.95;47496.00;4995388;28;20254;-89
2023/03/11 06:41:20;;;;;;;11.03;6.97;;;;;;;-141.97;75.06;47718.97;4993223;28;20194;-89
2023/03/11 06:43:46;;;;;;;11.77;8.13;;;;;;;-141.97;73.81;47651.69;4993634;28;20179;-89
2023/03/11 06:46:16;;;;;;;14.17;8.50;;;;;;;-141.97;72.41;47753.56;4993557;28;20592;-89
2023/03/11 06:48:41;;;;;;;15.10;8.70;;;;;;;-141.97;72.44;47524.84;4994873;28;20259;-87
2023/03/11 06:51:07;;;;;;;17.60;9.13;;;;;;;-141.97;72.23;47499.84;5009609;28;20282;-88
2023/03/11 06:53:33;;;;;;;6.70;4.40;;;;;;;-141.97;72.26;47542.16;4993883;28;20171;-89
2023/03/11 06:56:04;;;;;;;6.77;4.33;;;;;;;-141.97;72.34;47672.84;4996102;28;20563;-89
2023/03/11 06:58:31;;;;;;;6.43;4.60;;;;;;;-141.97;71.97;47657.47;4993973;28;20639;-89
2023/03/11 07:01:06;;;;;;;5.73;4.20;;;;;;;-141.97;71.52;47547.91;4990971;28;20571;-88
2023/03/11 07:03:32;;;;;;;7.20;5.10;;;;;;;-141.97;72.03;47684.38;4976198;28;20307;-88
2023/03/11 07:05:57;;;;;;;6.93;4.83;;;;;;;-141.97;72.55;47778.56;4974174;28;20187;-88
2023/03/11 07:08:24;;;;;;;6.67;4.93;;;;;;;-141.97;72.58;47649.78;4975181;28;20180;-87
2023/03/11 07:11:13;;;;;;;10.97;6.60;;;;;;;-141.97;72.03;47567.13;4976562;28;20262;-85
2023/03/11 07:13:39;;;;;;;7.50;5.00;;;;;;;-141.97;71.10;47682.47;5001080;28;20186;-88
2023/03/11 07:16:14;;;;;;;7.73;5.57;;;;;;;-141.97;71.61;47720.91;4994183;28;20203;-88
2023/03/11 07:18:40;;;;;;;71.87;26.80;;;;;;;-141.97;70.86;47703.59;4996565;28;20174;-89
2023/03/11 07:21:07;;;;;;;11.57;6.77;;;;;;;-141.97;70.15;47486.41;4997213;28;20195;-90
2023/03/11 07:23:34;;;;;;;10.73;5.93;;;;;;;-141.97;69.33;47569.06;4993037;28;20597;-90
2023/03/11 07:26:03;;;;;;;23.27;11.70;;;;;;;-141.97;67.76;47619.03;4993512;28;20175;-87
2023/03/11 07:28:32;;;;;;;12.53;7.57;;;;;;;-141.97;66.16;47534.44;4992554;28;20167;-88
2023/03/11 07:30:57;;;;;;;14.47;8.40;;;;;;;-141.97;66.34;47815.09;4992663;28;20234;-87
2023/03/11 07:33:23;;;;;;;20.17;11.90;;;;;;;-141.97;65.60;47845.84;4992404;28;20175;-89
2023/03/11 07:35:49;;;;;;;7.60;4.30;;;;;;;-141.97;66.16;47567.13;4994561;28;20217;-89
2023/03/11 07:38:16;;;;;;;9.87;5.87;;;;;;;-141.97;64.83;47484.47;4994089;28;20163;-88
2023/03/11 07:40:42;;;;;;;8.80;4.00;;;;;;;-141.97;64.51;47634.41;4995179;28;20234;-89
2023/03/11 07:43:08;;;;;;;6.90;4.00;;;;;;;-141.97;65.29;47567.13;4995509;28;20624;-89
2023/03/11 07:45:33;;;;;;;6.83;3.80;;;;;;;-141.97;66.75;47768.94;4994575;28;20160;-89
2023/03/11 07:47:58;;;;;;;4.97;3.67;;;;;;;-141.97;67.32;47661.31;4995121;28;20225;-89
2023/03/11 07:50:24;;;;;;;5.03;3.63;;;;;;;-141.97;66.92;47647.84;4994896;28;20270;-89
2023/03/11 07:52:50;;;;;;;6.40;3.77;;;;;;;-141.97;66.90;47580.59;4995293;28;20245;-89
2023/03/11 07:55:15;;;;;;;5.90;4.10;;;;;;;-141.97;66.17;47703.59;4995045;28;20171;-90
2023/03/11 07:57:41;;;;;;;5.57;3.30;;;;;;;-141.97;65.00;47797.78;4992256;28;20193;-82
2023/03/11 08:00:07;;;;;;;4.10;3.27;;;;;;;-141.97;65.64;47813.16;4992460;28;20155;-84
2023/03/11 08:02:33;;;;;;;4.43;3.20;;;;;;;-141.97;65.15;47751.66;4991832;28;20190;-84
2023/03/11 08:04:58;;;;;;;4.23;3.33;;;;;;;-141.97;63.96;47768.94;4992417;28;20163;-84
2023/03/11 08:07:24;;;;;;;5.60;3.43;;;;;;;-141.97;62.87;47626.72;4991278;28;20569;-84
2023/03/11 08:09:49;;;;;;;4.20;2.60;;;;;;;-141.97;61.01;47701.69;4991530;28;20210;-82
2023/03/11 08:12:15;;;;;;;3.20;2.23;;;;;;;-141.97;60.31;47667.06;4992209;28;20170;-83
2023/03/11 08:14:42;;;;;;;2.20;1.70;;;;;;;-141.97;58.69;47655.53;4992427;28;20246;-83
2023/03/11 08:17:08;;;;;;;3.57;2.40;;;;;;;-141.97;58.13;47669.00;4990911;28;20193;-83
2023/03/11 08:19:33;;;;;;;2.10;1.90;;;;;;;-141.97;57.51;47715.13;4992845;28;20183;-83
2023/03/11 08:22:02;;;;;;;2.10;1.73;;;;;;;-141.97;57.71;47622.88;4994957;28;20186;-83
2023/03/11 08:24:27;;;;;;;3.63;1.93;;;;;;;-141.97;57.72;47622.88;4996083;28;20222;-83
2023/03/11 08:26:54;;;;;;;2.57;1.90;;;;;;;-141.97;57.92;47672.84;4996436;28;20167;-83
2023/03/11 08:29:19;;;;;;;4.17;1.90;;;;;;;-141.97;57.78;47684.38;4995856;28;20227;-83
2023/03/11 08:31:45;;;;;;;5.10;3.47;;;;;;;-141.97;57.33;47570.97;4996325;28;20163;-83
2023/03/11 08:34:10;;;;;;;4.10;2.40;;;;;;;-141.97;56.91;47521.00;4995971;28;20171;-85
2023/03/11 08:36:36;;;;;;;5.03;2.47;;;;;;;-141.97;55.80;47638.25;4996001;28;20255;-83
2023/03/11 08:39:02;;;;;;;5.40;2.40;;;;;;;-141.97;56.85;47778.56;4995910;28;20201;-82
2023/03/11 08:41:27;;;;;;;3.73;2.43;;;;;;;-141.97;55.40;47578.66;4996154;28;20663;-83
2023/03/11 08:43:53;;;;;;;5.00;2.37;;;;;;;-141.97;54.77;47538.28;4999101;28;20235;-82
2023/03/11 08:46:23;;;;;;;3.97;2.63;;;;;;;-141.97;53.07;47749.72;5014450;28;20170;-82
2023/03/11 08:48:49;;;;;;;4.93;2.67;;;;;;;-141.97;53.03;47665.16;5016110;28;20194;-83
2023/03/11 08:51:14;;;;;;;6.50;2.60;;;;;;;-141.97;52.60;47665.16;5014556;28;20618;-84
2023/03/11 08:53:40;;;;;;;7.77;3.90;;;;;;;-141.97;52.26;47561.38;5015048;28;20258;-83
2023/03/11 08:56:12;;;;;;;6.57;2.77;;;;;;;-141.97;51.62;47644.00;5015344;28;20694;-86
2023/03/11 08:58:37;;;;;;;3.93;2.23;;;;;;;-141.97;53.05;47542.16;5015586;28;20305;-84
2023/03/11 09:01:05;;;;;;;3.97;2.60;;;;;;;-141.97;54.17;47576.75;5014441;28;20550;-83
2023/03/11 09:03:32;;;;;;;5.90;3.13;;;;;;;-141.97;53.01;47547.91;5016844;28;20174;-83
2023/03/11 09:06:03;;;;;;;8.57;4.17;;;;;;;-141.97;52.49;47644.00;5016356;28;20190;-83
2023/03/11 09:08:29;;;;;;;6.07;4.40;;;;;;;-141.97;51.51;47705.53;5013894;28;20198;-83
2023/03/11 09:10:55;;;;;;;4.17;2.40;;;;;;;-141.97;52.76;47659.38;5014997;28;20187;-83
2023/03/11 09:13:20;;;;;;;3.63;2.53;;;;;;;-141.97;53.24;47740.13;5014960;28;20182;-82
2023/03/11 09:15:48;;;;;;;7.17;4.47;;;;;;;-141.97;52.82;47642.09;5015196;28;20170;-83
2023/03/11 09:18:14;;;;;;;3.50;2.30;;;;;;;-141.97;52.83;47663.22;5014078;28;20562;-83
2023/03/11 09:20:41;;;;;;;7.50;5.03;;;;;;;-141.97;52.75;47622.88;5015225;28;20606;-83
2023/03/11 09:23:07;;;;;;;2.70;2.20;;;;;;;-141.97;52.36;47557.53;5013859;28;20615;-83
2023/03/11 09:25:32;;;;;;;6.20;4.13;;;;;;;-141.97;52.45;47745.88;5014777;28;20162;-84
2023/03/11 09:27:58;;;;;;;3.47;1.90;;;;;;;-141.97;52.15;47613.25;5014842;28;20178;-83
2023/03/11 09:30:23;;;;;;;2.70;1.80;;;;;;;-141.97;51.83;47742.03;5014215;28;20729;-83
2023/03/11 09:32:49;;;;;;;2.20;2.00;;;;;;;-141.97;52.00;47670.91;5013447;28;20197;-84
2023/03/11 09:35:14;;;;;;;1.90;1.70;;;;;;;-141.97;52.42;47663.22;5014725;28;20163;-83
2023/03/11 09:37:39;;;;;;;2.60;2.40;;;;;;;-141.97;53.80;47620.94;5014805;28;20598;-83
2023/03/11 09:40:06;;;;;;;2.50;1.80;;;;;;;-141.97;53.53;47828.53;5014332;28;20242;-82
2023/03/11 09:42:51;;;;;;;5.67;1.97;;;;;;;-141.97;54.04;47580.59;5014707;28;20163;-84
2023/03/11 09:45:30;;;;;;;2.43;1.60;;;;;;;-141.97;52.66;47622.88;5014458;28;20254;-84
2023/03/11 09:48:10;;;;;;;4.30;2.50;;;;;;;-141.97;52.14;47647.84;5014811;28;20171;-83
2023/03/11 09:51:07;;;;;;;3.87;2.40;;;;;;;-141.97;51.53;47680.53;5014335;28;20272;-84
2023/03/11 09:53:43;;;;;;;5.00;3.30;;;;;;;-141.97;50.85;47667.06;4973808;28;20223;-83
2023/03/11 09:56:21;;;;;;;10.33;5.47;;;;;;;-141.97;49.23;47607.50;4973463;28;20532;-83
2023/03/11 09:58:54;;;;;;;6.53;3.27;;;;;;;-141.97;48.41;47815.09;4973684;28;20223;-83
2023/03/11 10:01:47;;;;;;;8.27;3.90;;;;;;;-141.97;47.35;47632.47;4973234;28;20167;-83
2023/03/11 10:04:20;;;;;;;7.90;3.60;;;;;;;-141.97;46.98;47818.94;4953855;29;20293;-82
2023/03/11 10:06:46;;;;;;;7.93;2.50;;;;;;;-141.97;45.70;47705.53;4938756;29;20236;-82
2023/03/11 10:09:39;;;;;;;9.50;5.57;;;;;;;-141.97;44.34;47657.47;4953936;29;20191;-83
2023/03/11 10:12:40;;;;;;;7.10;2.87;;;;;;;-141.97;44.08;47615.19;4943510;29;20220;-85
2023/03/11 10:15:05;;;;;;;8.23;2.40;;;;;;;-141.97;44.04;47670.91;4877548;29;20191;-83
2023/03/11 10:17:51;;;;;;;33.13;15.00;;;;;;;-141.97;43.52;47661.31;4877222;29;20274;-84
2023/03/11 10:20:17;;;;;;;9.33;5.57;;;;;;;-141.97;44.03;47649.78;4877312;29;20193;-84
2023/03/11 10:22:45;;;;;;;50.60;27.40;;;;;;;-141.97;44.07;47667.06;4878381;29;20290;-83
2023/03/11 10:25:14;;;;;;;28.87;16.47;;;;;;;-141.97;44.21;47584.44;4878095;29;20180;-83
2023/03/11 10:27:48;;;;;;;7.17;5.50;;;;;;;-141.97;43.69;47611.34;4877293;29;20199;-83
2023/03/11 10:30:34;;;;;;;8.50;6.27;;;;;;;-141.97;42.90;47584.44;4885994;29;20321;-83
2023/03/11 10:33:22;;;;;;;8.10;6.00;;;;;;;-141.97;42.05;47638.25;4895565;29;20229;-83
2023/03/11 10:35:54;;;;;;;11.70;8.47;;;;;;;-141.97;41.38;47636.31;4884879;29;20198;-83
2023/03/11 10:38:26;;;;;;;4.90;3.53;;;;;;;-141.97;40.26;47580.59;4876672;29;20199;-83
2023/03/11 10:40:59;;;;;;;6.80;4.47;;;;;;;-141.97;40.38;47586.34;4902757;29;20198;-83
2023/03/11 10:43:32;;;;;;;5.40;3.77;;;;;;;-141.97;39.87;47599.81;4933360;29;20165;-83
2023/03/11 10:45:58;;;;;;;5.43;4.20;;;;;;;-141.97;39.96;47576.75;4941965;29;20231;-84
2023/03/11 10:48:25;;;;;;;2.13;1.90;;;;;;;-141.97;39.74;47767.03;4952119;29;20207;-84
2023/03/11 10:51:02;;;;;;;4.03;2.90;;;;;;;-141.97;40.10;47605.56;4956174;28;20332;-84
2023/03/11 10:53:27;;;;;;;4.73;2.60;;;;;;;-141.97;39.80;47638.25;5012669;28;20242;-83
2023/03/11 10:55:55;;;;;;;6.13;3.63;;;;;;;-141.97;39.72;47597.88;5013094;28;20265;-84
2023/03/11 10:58:26;;;;;;;4.13;3.17;;;;;;;-141.97;39.22;47636.31;5012984;28;20544;-84
2023/03/11 11:01:03;;;;;;;4.80;3.50;;;;;;;-141.97;39.02;47549.84;5013043;28;20174;-83
2023/03/11 11:03:29;;;;;;;6.67;4.70;;;;;;;-141.97;38.85;47611.34;5013082;28;20241;-83
2023/03/11 11:06:01;;;;;;;9.77;5.50;;;;;;;-141.97;38.15;47634.41;5013192;28;20166;-82
2023/03/11 11:08:27;;;;;;;11.27;4.40;;;;;;;-141.97;37.60;47488.31;5013290;28;20589;-83
2023/03/11 11:11:02;;;;;;;6.70;2.70;;;;;;;-141.97;37.65;47722.81;5012354;28;20209;-87
2023/03/11 11:13:36;;;;;;;5.70;3.17;;;;;;;-141.97;36.67;47732.44;5013129;28;20669;-84